Time;durP1;ratioP1;P1;durP2;ratioP2;P2;SDS_P1;SDS_P2;PMS_P1;PMS_P2;Temp;Humidity;BMP_temperature;BMP_pressure;BME280_temperature;BME280_humidity;BME280_pressure;Samples;Min_cycle;Max_cycle;Signal;HPM_P1;HPM_P2
2022/04/20 00:00:59;;;;;;;3.77;1.60;;;10.80;60.60;;;;;;5075088;28;20481;-68
2022/04/20 00:03:25;;;;;;;1.97;1.33;;;10.80;60.70;;;;;;5093498;28;20102;-67
2022/04/20 00:05:50;;;;;;;2.93;1.63;;;10.70;60.80;;;;;;5074149;28;20031;-69
2022/04/20 00:08:16;;;;;;;3.73;1.67;;;10.70;60.90;;;;;;5093321;28;20265;-68
2022/04/20 00:10:41;;;;;;;2.37;1.53;;;10.60;61.00;;;;;;5075045;28;20024;-68
2022/04/20 00:13:07;;;;;;;2.50;1.73;;;10.60;61.10;;;;;;5093434;28;20031;-68
2022/04/20 00:15:33;;;;;;;2.50;1.43;;;10.50;61.10;;;;;;5075481;28;20149;-68
2022/04/20 00:17:58;;;;;;;2.67;1.67;;;10.50;61.30;;;;;;5075703;28;20537;-68
2022/04/20 00:20:24;;;;;;;2.73;1.70;;;10.50;61.50;;;;;;5094687;28;20021;-68
2022/04/20 00:22:49;;;;;;;3.50;1.90;;;10.40;61.70;;;;;;5095101;28;20031;-67
2022/04/20 00:25:15;;;;;;;4.53;1.80;;;10.40;61.90;;;;;;5095172;28;20024;-68
2022/04/20 00:27:41;;;;;;;3.30;1.67;;;10.30;62.20;;;;;;5093281;28;20342;-68
2022/04/20 00:30:08;;;;;;;2.90;1.80;;;10.30;62.20;;;;;;5093683;28;20057;-68
2022/04/20 00:32:34;;;;;;;2.97;1.48;;;10.20;62.20;;;;;;5093149;28;20480;-69
2022/04/20 00:35:00;;;;;;;3.33;1.95;;;10.20;62.40;;;;;;5075002;28;20054;-68
2022/04/20 00:37:26;;;;;;;2.88;1.63;;;10.10;62.50;;;;;;5093250;28;20048;-68
2022/04/20 00:39:52;;;;;;;3.42;1.48;;;10.10;62.70;;;;;;5093282;28;20471;-68
2022/04/20 00:42:19;;;;;;;4.55;1.88;;;10.10;62.80;;;;;;5093193;28;20032;-68
2022/04/20 00:44:45;;;;;;;5.35;2.00;;;10.10;63.00;;;;;;5093424;28;20070;-68
2022/04/20 00:47:11;;;;;;;4.77;1.80;;;10.00;63.20;;;;;;5075823;28;20039;-68
2022/04/20 00:49:37;;;;;;;2.85;1.63;;;9.90;63.30;;;;;;5076254;28;20024;-68
2022/04/20 00:52:05;;;;;;;3.90;1.92;;;9.90;63.50;;;;;;5095116;28;20063;-68
2022/04/20 00:54:31;;;;;;;3.60;1.75;;;9.80;63.80;;;;;;5076744;28;20455;-68
2022/04/20 00:56:57;;;;;;;2.30;1.77;;;9.80;64.00;;;;;;5095101;28;20017;-68
2022/04/20 00:59:26;;;;;;;4.43;1.60;;;9.80;64.10;;;;;;5094609;28;20020;-68
2022/04/20 01:01:52;;;;;;;5.45;1.70;;;9.70;64.30;;;;;;5075812;28;20128;-68
2022/04/20 01:04:18;;;;;;;3.42;1.65;;;9.70;64.50;;;;;;5075153;28;20052;-68
2022/04/20 01:06:45;;;;;;;3.20;1.90;;;9.60;64.50;;;;;;5092889;28;20028;-68
2022/04/20 01:09:11;;;;;;;3.90;1.80;;;9.60;64.70;;;;;;5092955;28;20051;-68
2022/04/20 01:11:37;;;;;;;2.87;1.80;;;9.50;64.70;;;;;;5092513;28;20134;-68
2022/04/20 01:14:03;;;;;;;5.95;2.00;;;9.50;65.00;;;;;;5092503;28;20441;-68
2022/04/20 01:16:29;;;;;;;5.70;1.70;;;9.40;65.10;;;;;;5075515;28;20028;-68
2022/04/20 01:18:55;;;;;;;3.87;1.60;;;9.40;65.30;;;;;;5096415;28;20027;-68
2022/04/20 01:21:22;;;;;;;3.53;1.80;;;9.40;65.50;;;;;;5096765;28;20066;-67
2022/04/20 01:23:47;;;;;;;2.65;1.70;;;9.30;65.50;;;;;;5096015;28;20100;-67
2022/04/20 01:26:13;;;;;;;6.43;1.83;;;9.30;65.70;;;;;;5078388;28;20059;-67
2022/04/20 01:28:43;;;;;;;3.20;1.93;;;9.30;65.80;;;;;;5096227;28;20031;-67
2022/04/20 01:31:12;;;;;;;2.75;1.60;;;9.20;65.90;;;;;;5096196;28;20020;-67
2022/04/20 01:33:37;;;;;;;4.93;1.70;;;9.20;66.20;;;;;;5096409;28;20046;-68
2022/04/20 01:36:03;;;;;;;4.73;1.80;;;9.20;66.30;;;;;;5078252;28;20484;-67
2022/04/20 01:38:29;;;;;;;3.80;1.98;;;9.10;66.60;;;;;;5095990;28;20046;-67
2022/04/20 01:40:54;;;;;;;3.90;1.60;;;9.10;66.60;;;;;;5096028;28;20460;-67
2022/04/20 01:43:20;;;;;;;2.70;1.53;;;9.10;66.80;;;;;;5096070;28;20046;-67
2022/04/20 01:45:45;;;;;;;5.90;1.77;;;9.10;66.80;;;;;;5077508;28;20053;-67
2022/04/20 01:48:11;;;;;;;3.30;1.97;;;9.10;67.00;;;;;;5095670;28;20095;-67
2022/04/20 01:51:46;;;;;;;3.77;1.80;;;9.10;67.10;;;;;;5095667;28;20028;-67
2022/04/20 01:53:23;;;;;;;4.65;1.88;;;9.10;67.20;;;;;;5095362;28;20024;-67
2022/04/20 01:55:48;;;;;;;4.45;2.00;;;9.10;67.30;;;;;;5095454;28;20073;-67
2022/04/20 01:58:14;;;;;;;4.07;1.77;;;9.10;67.40;;;;;;5095727;28;20036;-67
2022/04/20 02:00:39;;;;;;;4.60;1.87;;;9.10;67.40;;;;;;5095511;28;20047;-67
2022/04/20 02:03:05;;;;;;;3.73;2.10;;;9.10;67.40;;;;;;5077317;28;20028;-67
2022/04/20 02:05:30;;;;;;;2.10;1.63;;;9.10;67.40;;;;;;5095541;28;20024;-66
2022/04/20 02:07:57;;;;;;;2.47;1.70;;;9.10;67.70;;;;;;5078550;28;20028;-66
2022/04/20 02:10:22;;;;;;;3.58;2.00;;;9.10;67.90;;;;;;5104265;28;20073;-66
2022/04/20 02:12:48;;;;;;;2.70;1.90;;;9.00;68.00;;;;;;5085731;28;20034;-67
2022/04/20 02:15:13;;;;;;;4.07;2.13;;;9.00;68.30;;;;;;5077068;28;20047;-67
2022/04/20 02:17:39;;;;;;;3.33;2.23;;;9.00;68.60;;;;;;5095672;28;20028;-66
2022/04/20 02:20:05;;;;;;;2.67;1.67;;;9.00;68.80;;;;;;5095921;28;20035;-67
2022/04/20 02:22:31;;;;;;;4.20;2.28;;;9.00;69.10;;;;;;5095329;28;20047;-66
2022/04/20 02:24:59;;;;;;;3.45;1.90;;;8.90;69.20;;;;;;5076988;28;20477;-67
2022/04/20 02:27:28;;;;;;;3.72;2.10;;;9.00;69.40;;;;;;5094450;28;20027;-66
2022/04/20 02:29:53;;;;;;;3.78;1.92;;;8.90;69.60;;;;;;5094667;28;20028;-66
2022/04/20 02:32:21;;;;;;;3.77;2.40;;;8.90;69.90;;;;;;5094978;28;20028;-68
2022/04/20 02:34:47;;;;;;;4.18;2.05;;;8.90;70.30;;;;;;5076723;28;20038;-68
2022/04/20 02:37:12;;;;;;;4.53;1.90;;;8.80;70.60;;;;;;5095028;28;20028;-68
2022/04/20 02:39:39;;;;;;;4.10;2.13;;;8.80;70.90;;;;;;5076801;28;20473;-66
2022/04/20 02:42:06;;;;;;;2.97;1.80;;;8.80;71.30;;;;;;5094685;28;20130;-67
2022/04/20 02:44:32;;;;;;;4.10;2.10;;;8.80;71.60;;;;;;5076281;28;20020;-66
2022/04/20 02:46:58;;;;;;;4.30;2.40;;;8.80;71.90;;;;;;5094870;28;20031;-66
2022/04/20 02:49:24;;;;;;;2.88;2.15;;;8.70;72.20;;;;;;5076795;28;20294;-66
2022/04/20 02:51:49;;;;;;;5.07;2.77;;;8.70;72.40;;;;;;5076491;28;20038;-66
2022/04/20 02:54:15;;;;;;;3.87;2.37;;;8.70;72.60;;;;;;5079075;28;20019;-66
2022/04/20 02:56:41;;;;;;;6.85;2.15;;;8.70;72.90;;;;;;5096975;28;20024;-66
2022/04/20 02:59:06;;;;;;;4.63;2.33;;;8.70;73.00;;;;;;5076523;28;20024;-66
2022/04/20 03:01:32;;;;;;;4.67;2.47;;;8.70;73.20;;;;;;5076364;28;20392;-66
2022/04/20 03:03:59;;;;;;;4.35;2.25;;;8.70;73.40;;;;;;5095075;28;20035;-66
2022/04/20 03:06:25;;;;;;;4.80;2.50;;;8.70;73.70;;;;;;5076160;28;20106;-67
2022/04/20 03:08:51;;;;;;;3.05;2.60;;;8.70;73.90;;;;;;5095059;28;20422;-67
2022/04/20 03:11:16;;;;;;;6.70;2.40;;;8.70;74.00;;;;;;5076077;28;20057;-67
2022/04/20 03:13:42;;;;;;;4.33;2.77;;;8.70;74.30;;;;;;5094303;28;20165;-67
2022/04/20 03:16:08;;;;;;;4.40;2.53;;;8.70;74.60;;;;;;5094066;28;20036;-67
2022/04/20 03:18:33;;;;;;;4.97;2.67;;;8.70;74.90;;;;;;5075898;28;20035;-67
2022/04/20 03:21:02;;;;;;;6.83;2.47;;;8.70;75.00;;;;;;5094029;28;20415;-68
2022/04/20 03:23:29;;;;;;;4.22;2.67;;;8.70;75.20;;;;;;5075932;28;20127;-67
2022/04/20 03:25:55;;;;;;;;;;;8.70;75.40;;;;;;5076139;28;20425;-67
2022/04/20 03:28:20;;;;;;;5.00;2.67;;;8.70;75.60;;;;;;5076360;28;19953;-67
2022/04/20 03:30:46;;;;;;;5.55;2.75;;;8.70;75.80;;;;;;5096397;28;20099;-67
2022/04/20 03:33:12;;;;;;;4.80;2.20;;;8.60;76.00;;;;;;5078312;28;20357;-67
2022/04/20 03:35:38;;;;;;;6.00;2.78;;;8.60;76.20;;;;;;5125528;23;20043;-66
2022/04/20 03:38:05;;;;;;;4.80;2.67;;;8.50;76.40;;;;;;5114369;28;20019;-66
2022/04/20 03:40:31;;;;;;;4.75;2.80;;;8.50;76.70;;;;;;5114279;28;20031;-66
2022/04/20 03:42:56;;;;;;;6.33;2.80;;;8.50;76.70;;;;;;5114751;28;20031;-66
2022/04/20 03:45:22;;;;;;;4.30;2.67;;;8.50;76.90;;;;;;5114329;28;20019;-66
2022/04/20 03:47:47;;;;;;;6.00;3.17;;;8.50;77.20;;;;;;5114493;28;20047;-66
2022/04/20 03:50:13;;;;;;;5.83;2.87;;;8.50;78.10;;;;;;5114536;28;20468;-66
2022/04/20 03:52:39;;;;;;;5.10;3.07;;;8.50;77.90;;;;;;5113012;28;20036;-68
2022/04/20 03:55:05;;;;;;;4.37;2.70;;;8.50;78.10;;;;;;5114309;28;20024;-66
2022/04/20 03:57:31;;;;;;;6.63;2.70;;;8.40;78.50;;;;;;5114441;28;20540;-66
2022/04/20 03:59:56;;;;;;;3.50;2.60;;;8.40;78.80;;;;;;5114663;28;20027;-66
2022/04/20 04:02:22;;;;;;;4.23;2.50;;;8.40;79.20;;;;;;5114187;28;20032;-66
2022/04/20 04:04:48;;;;;;;4.50;2.67;;;8.40;79.60;;;;;;5113010;28;20076;-66
2022/04/20 04:07:13;;;;;;;5.47;2.80;;;8.40;79.80;;;;;;5114352;28;20038;-66
2022/04/20 04:09:39;;;;;;;4.83;3.07;;;8.40;80.20;;;;;;5114098;28;20028;-66
2022/04/20 04:12:06;;;;;;;4.33;2.80;;;8.30;80.50;;;;;;5113982;28;20032;-66
2022/04/20 04:14:37;;;;;;;3.97;2.70;;;8.30;80.70;;;;;;5113808;28;20027;-66
2022/04/20 04:17:03;;;;;;;5.32;3.08;;;8.30;81.10;;;;;;5112791;28;20533;-66
2022/04/20 04:19:29;;;;;;;6.30;2.70;;;8.30;81.70;;;;;;5114226;28;20020;-66
2022/04/20 04:21:56;;;;;;;4.13;2.90;;;8.30;81.70;;;;;;5113870;28;20023;-66
2022/04/20 04:24:37;;;;;;;4.40;2.85;;;8.30;82.50;;;;;;5114120;28;20364;-67
2022/04/20 04:27:08;;;;;;;3.30;2.30;;;8.20;83.90;;;;;;5114285;28;20035;-66
2022/04/20 04:29:34;;;;;;;4.20;2.50;;;8.00;85.00;;;;;;5114171;28;20030;-66
2022/04/20 04:32:00;;;;;;;4.80;2.78;;;8.00;85.90;;;;;;5113590;28;20537;-66
2022/04/20 04:34:26;;;;;;;5.35;2.55;;;7.90;86.20;;;;;;5113768;28;20387;-66
2022/04/20 04:36:54;;;;;;;3.17;2.30;;;7.90;86.60;;;;;;5112361;28;20039;-66
2022/04/20 04:39:23;;;;;;;4.63;2.90;;;7.90;86.50;;;;;;5113681;28;20372;-67
2022/04/20 04:41:50;;;;;;;8.05;2.90;;;7.90;86.90;;;;;;5113689;28;20024;-67
2022/04/20 04:44:19;;;;;;;5.80;2.50;;;7.80;87.80;;;;;;5113682;28;20032;-66
2022/04/20 04:49:30;;;;;;;7.60;2.92;;;7.80;88.70;;;;;;5114499;28;20130;-66
2022/04/20 04:51:57;;;;;;;3.97;2.78;;;7.80;89.20;;;;;;5115515;28;20487;-66
2022/04/20 04:54:23;;;;;;;4.80;2.80;;;7.80;89.40;;;;;;5117855;28;20027;-68
2022/04/20 04:56:49;;;;;;;4.60;2.72;;;7.80;90.00;;;;;;5116239;28;20019;-68
2022/04/20 04:59:14;;;;;;;2.83;2.47;;;7.80;90.10;;;;;;5117533;28;20024;-67
2022/04/20 05:01:40;;;;;;;5.00;2.77;;;7.80;91.00;;;;;;5118421;28;20486;-67
2022/04/20 05:04:06;;;;;;;10.80;3.17;;;7.70;91.50;;;;;;5117651;28;20053;-67
2022/04/20 05:06:31;;;;;;;7.67;2.80;;;7.50;92.00;;;;;;5117510;28;20028;-67
2022/04/20 05:08:57;;;;;;;3.55;2.72;;;7.50;92.30;;;;;;5117558;28;20031;-67
2022/04/20 05:11:23;;;;;;;7.18;2.78;;;7.60;92.30;;;;;;5117593;28;20409;-66
2022/04/20 05:13:49;;;;;;;4.40;3.20;;;7.60;92.10;;;;;;5116892;28;20032;-66
2022/04/20 05:16:14;;;;;;;5.53;3.00;;;7.70;92.50;;;;;;5117641;28;20073;-67
2022/04/20 05:18:40;;;;;;;5.40;2.90;;;7.70;92.30;;;;;;5116095;28;20118;-66
2022/04/20 05:21:05;;;;;;;4.27;2.90;;;7.80;92.30;;;;;;5118098;28;20035;-67
2022/04/20 05:23:31;;;;;;;4.67;2.93;;;7.80;92.40;;;;;;5118534;28;20074;-68
2022/04/20 05:25:57;;;;;;;5.83;2.60;;;7.80;92.60;;;;;;5119394;28;20262;-67
2022/04/20 05:28:22;;;;;;;7.50;4.00;;;7.80;92.90;;;;;;5118273;28;20041;-67
2022/04/20 05:30:48;;;;;;;4.67;3.47;;;7.80;93.10;;;;;;5116806;28;20023;-68
2022/04/20 05:33:14;;;;;;;5.97;2.33;;;7.70;93.20;;;;;;5115518;28;20024;-68
2022/04/20 05:35:39;;;;;;;8.20;3.00;;;7.70;93.40;;;;;;5117126;28;20430;-68
2022/04/20 05:43:33;;;;;;;5.93;2.83;;;7.60;93.90;;;;;;5117121;28;20080;-67
2022/04/20 05:45:59;;;;;;;3.67;2.37;;;7.60;93.90;;;;;;5117016;28;20027;-67
2022/04/20 05:48:25;;;;;;;4.07;2.95;;;7.50;93.70;;;;;;5115904;28;20040;-67
2022/04/20 05:50:50;;;;;;;5.30;2.75;;;7.50;93.80;;;;;;5116718;28;20039;-66
2022/04/20 05:53:16;;;;;;;4.30;2.70;;;7.50;93.80;;;;;;5115371;28;20132;-68
2022/04/20 05:55:42;;;;;;;4.57;2.67;;;7.50;93.80;;;;;;5116627;28;20094;-67
2022/04/20 05:58:08;;;;;;;3.27;2.50;;;7.60;93.90;;;;;;5116847;28;20379;-66
2022/04/20 06:00:34;;;;;;;6.50;2.90;;;7.60;94.10;;;;;;5116985;28;20019;-67
2022/04/20 06:02:59;;;;;;;5.07;2.80;;;7.70;94.10;;;;;;5116079;28;20020;-69
2022/04/20 06:05:25;;;;;;;3.73;2.70;;;7.70;94.20;;;;;;5116277;28;20464;-68
2022/04/20 06:07:50;;;;;;;14.07;2.47;;;7.80;94.40;;;;;;5116532;28;20023;-67
2022/04/20 06:10:16;;;;;;;4.87;2.77;;;7.80;93.90;;;;;;5116239;28;20069;-67
2022/04/20 06:12:42;;;;;;;5.10;2.90;;;7.80;95.10;;;;;;5116571;28;20464;-67
2022/04/20 06:15:08;;;;;;;3.73;2.80;;;7.90;93.80;;;;;;5116086;28;20024;-67
2022/04/20 06:17:34;;;;;;;7.57;2.90;;;7.90;93.50;;;;;;5116740;28;20026;-67
2022/04/20 06:20:01;;;;;;;5.35;3.08;;;7.90;93.40;;;;;;5115059;28;20031;-67
2022/04/20 06:22:27;;;;;;;3.95;2.83;;;8.00;93.10;;;;;;5114569;28;20472;-66
2022/04/20 06:24:52;;;;;;;4.68;2.65;;;8.00;93.40;;;;;;5115720;28;20038;-66
2022/04/20 06:27:19;;;;;;;6.37;3.07;;;8.10;93.00;;;;;;5116303;28;20019;-66
2022/04/20 06:29:44;;;;;;;;;;;8.20;93.20;;;;;;5116156;28;20023;-65
2022/04/20 06:32:10;;;;;;;4.88;2.60;;;8.30;92.80;;;;;;5115421;28;20255;-64
2022/04/20 06:34:36;;;;;;;8.23;3.00;;;8.30;92.40;;;;;;5114976;28;20039;-67
2022/04/20 06:37:03;;;;;;;6.07;2.90;;;8.40;92.40;;;;;;5115759;28;20387;-67
2022/04/20 06:39:28;;;;;;;5.68;3.17;;;8.40;92.20;;;;;;5115646;28;20103;-67
2022/04/20 06:41:54;;;;;;;6.03;3.07;;;8.50;92.20;;;;;;5115736;28;20054;-67
2022/04/20 06:44:19;;;;;;;4.60;2.60;;;8.50;91.70;;;;;;5115501;28;20023;-65
2022/04/20 06:46:45;;;;;;;6.47;3.03;;;8.60;91.70;;;;;;5116167;28;20031;-66
2022/04/20 06:49:11;;;;;;;5.95;3.08;;;8.80;91.40;;;;;;5115829;28;20032;-68
2022/04/20 06:59:52;;;;;;;4.95;2.50;;;8.90;90.90;;;;;;5115139;28;20034;-64
2022/04/20 07:02:18;;;;;;;4.60;3.10;;;9.10;90.90;;;;;;5115660;28;20116;-65
2022/04/20 07:04:43;;;;;;;7.90;3.00;;;9.20;90.40;;;;;;5113717;28;20032;-66
2022/04/20 07:07:09;;;;;;;5.93;2.87;;;9.20;90.20;;;;;;5114988;28;20035;-66
2022/04/20 07:09:34;;;;;;;4.27;2.67;;;9.20;90.20;;;;;;5115682;28;20025;-67
2022/04/20 07:12:00;;;;;;;5.00;2.83;;;9.30;90.40;;;;;;5114619;28;20032;-64
2022/04/20 07:14:25;;;;;;;3.27;2.57;;;9.40;90.00;;;;;;5113533;28;20130;-66
2022/04/20 07:16:51;;;;;;;5.47;2.47;;;9.50;89.40;;;;;;5114788;28;20031;-66
2022/04/20 07:19:17;;;;;;;7.47;2.83;;;9.60;88.90;;;;;;5114882;28;20035;-66
2022/04/20 07:21:42;;;;;;;3.83;2.60;;;9.60;88.30;;;;;;5114324;28;20032;-65
2022/04/20 07:24:08;;;;;;;6.30;2.80;;;9.60;88.10;;;;;;5113720;28;20027;-66
2022/04/20 07:26:33;;;;;;;4.70;3.00;;;9.70;88.20;;;;;;5113520;28;20024;-65
2022/04/20 07:28:59;;;;;;;6.10;2.63;;;9.80;87.20;;;;;;5114876;28;20027;-65
2022/04/20 07:31:25;;;;;;;5.70;2.90;;;9.90;87.40;;;;;;5115015;28;20088;-65
2022/04/20 07:33:51;;;;;;;5.75;2.90;;;10.00;86.30;;;;;;5115250;28;20024;-64
2022/04/20 07:36:17;;;;;;;3.43;2.30;;;10.10;85.50;;;;;;5114920;28;20036;-63
2022/04/20 07:38:43;;;;;;;3.90;2.67;;;10.10;84.50;;;;;;5116210;28;20024;-63
2022/04/20 07:41:08;;;;;;;5.95;2.50;;;10.30;84.80;;;;;;5120104;28;20042;-65
2022/04/20 07:43:35;;;;;;;11.87;3.10;;;10.40;83.70;;;;;;5117156;28;20028;-64
2022/04/20 07:46:01;;;;;;;7.65;2.28;;;10.50;82.70;;;;;;5118815;28;20024;-66
2022/04/20 07:48:26;;;;;;;3.80;2.50;;;10.60;83.40;;;;;;5116110;28;20027;-66
2022/04/20 07:50:52;;;;;;;4.67;2.67;;;10.70;82.40;;;;;;5114253;28;20032;-66
2022/04/20 07:53:18;;;;;;;4.30;2.73;;;10.80;81.40;;;;;;5114084;28;20448;-64
2022/04/20 07:55:46;;;;;;;4.33;2.50;;;10.80;81.50;;;;;;5113216;28;20063;-65
2022/04/20 07:58:13;;;;;;;6.05;2.35;;;10.90;80.30;;;;;;5112857;28;20610;-63
2022/04/20 08:00:38;;;;;;;4.35;2.97;;;11.00;80.90;;;;;;5114077;28;20547;-65
2022/04/20 08:03:15;;;;;;;9.45;2.95;;;11.00;79.30;;;;;;5114196;28;20114;-63
2022/04/20 08:05:42;;;;;;;;;;;11.10;79.60;;;;;;5114686;28;20012;-64
2022/04/20 08:08:09;;;;;;;5.68;2.33;;;11.10;78.60;;;;;;5112410;28;19969;-63
2022/04/20 08:10:36;;;;;;;4.80;2.40;;;11.20;78.50;;;;;;5113813;28;20015;-63
2022/04/20 08:14:09;;;;;;;5.03;2.45;;;11.30;77.80;;;;;;5114193;28;20016;-65
2022/04/20 08:15:47;;;;;;;4.82;2.47;;;11.40;77.00;;;;;;5113881;28;20226;-64
2022/04/20 08:18:13;;;;;;;4.03;2.30;;;11.50;76.60;;;;;;5114226;28;20043;-65
2022/04/20 08:20:38;;;;;;;3.42;2.33;;;11.50;76.00;;;;;;5113915;28;20475;-64
2022/04/20 08:23:04;;;;;;;3.50;2.60;;;11.70;75.90;;;;;;5113721;28;20487;-67
2022/04/20 08:25:30;;;;;;;3.17;2.20;;;11.90;75.00;;;;;;5113275;28;20078;-65
2022/04/20 08:27:55;;;;;;;5.37;2.87;;;11.90;74.60;;;;;;5112056;28;20033;-67
2022/04/20 08:30:21;;;;;;;3.70;2.20;;;12.10;74.20;;;;;;5114162;28;20023;-66
2022/04/20 08:32:46;;;;;;;3.23;2.17;;;12.30;73.20;;;;;;5114137;28;20153;-65
2022/04/20 08:35:12;;;;;;;2.63;2.10;;;13.20;71.20;;;;;;5112125;28;20095;-65
2022/04/20 08:37:37;;;;;;;3.07;1.97;;;14.60;67.30;;;;;;5113797;28;20112;-65
2022/04/20 08:40:04;;;;;;;3.08;2.08;;;15.30;64.20;;;;;;5112393;28;20023;-65
2022/04/20 08:42:33;;;;;;;4.00;2.20;;;16.80;61.40;;;;;;5114202;28;20032;-68
2022/04/20 08:45:02;;;;;;;6.82;2.47;;;17.70;58.00;;;;;;5114026;28;20414;-66
2022/04/20 08:47:34;;;;;;;5.32;2.30;;;17.90;56.90;;;;;;5112734;28;20024;-67
2022/04/20 08:50:01;;;;;;;5.13;2.47;;;18.00;57.20;;;;;;5113692;28;20082;-65
2022/04/20 08:52:37;;;;;;;3.30;1.90;;;18.90;55.10;;;;;;5112800;28;20046;-66
2022/04/20 08:55:10;;;;;;;3.08;2.30;;;18.70;53.80;;;;;;5112316;28;20015;-65
2022/04/20 08:57:37;;;;;;;2.78;2.03;;;18.50;53.70;;;;;;5112144;28;20016;-64
2022/04/20 09:00:09;;;;;;;4.72;2.45;;;18.00;53.90;;;;;;5113071;28;20066;-66
2022/04/20 09:02:35;;;;;;;6.05;2.17;;;18.70;53.90;;;;;;5111791;28;20034;-66
2022/04/20 09:05:03;;;;;;;5.75;2.35;;;18.90;52.50;;;;;;5112106;28;20019;-67
2022/04/20 09:07:31;;;;;;;8.52;3.03;;;19.20;52.10;;;;;;5113792;28;20068;-67
2022/04/20 09:09:57;;;;;;;3.40;2.22;;;18.90;52.30;;;;;;5113493;28;20012;-66
2022/04/20 09:12:23;;;;;;;5.32;2.20;;;17.40;53.90;;;;;;5113533;28;20364;-65
2022/04/20 09:14:50;;;;;;;4.07;2.40;;;17.30;54.50;;;;;;5113484;28;20026;-66
2022/04/20 09:17:20;;;;;;;3.63;2.40;;;17.80;54.10;;;;;;5113462;28;20023;-66
2022/04/20 09:19:49;;;;;;;3.88;2.55;;;17.40;54.50;;;;;;5113677;28;20048;-68
2022/04/20 09:22:25;;;;;;;5.43;2.30;;;18.10;53.40;;;;;;5112076;28;20035;-67
2022/04/20 09:25:14;;;;;;;6.10;2.33;;;17.60;53.70;;;;;;5113574;28;20024;-67
2022/04/20 09:27:42;;;;;;;5.32;2.78;;;17.60;54.00;;;;;;5113076;28;20111;-68
2022/04/20 09:30:16;;;;;;;3.53;1.90;;;19.30;52.70;;;;;;5112108;28;20488;-66
2022/04/20 09:32:46;;;;;;;4.15;1.92;;;19.70;50.90;;;;;;5113157;28;20032;-66
2022/04/20 09:35:18;;;;;;;5.43;2.30;;;19.20;50.70;;;;;;5113953;28;20076;-67
2022/04/20 09:37:45;;;;;;;2.42;1.90;;;19.00;50.70;;;;;;5115130;28;20020;-66
2022/04/20 09:40:13;;;;;;;5.13;2.35;;;19.20;50.80;;;;;;5117166;28;20024;-67
2022/04/20 09:43:12;;;;;;;6.97;2.60;;;19.50;50.70;;;;;;5117201;28;20080;-69
2022/04/20 09:45:38;;;;;;;4.57;1.92;;;20.10;50.20;;;;;;5094592;28;20036;-66
2022/04/20 09:51:11;;;;;;;6.10;2.65;;;19.00;50.40;;;;;;5094668;28;20047;-65
2022/04/20 09:53:36;;;;;;;3.95;1.92;;;19.90;50.00;;;;;;5077166;28;20020;-66
2022/04/20 09:56:23;;;;;;;3.45;2.30;;;21.10;48.80;;;;;;5093994;28;20504;-66
2022/04/20 09:59:02;;;;;;;2.35;2.13;;;20.30;48.60;;;;;;5099604;28;20035;-66
2022/04/20 10:01:34;;;;;;;4.60;2.53;;;20.50;49.10;;;;;;5096123;28;20035;-66
2022/04/20 10:04:01;;;;;;;3.47;2.22;;;20.80;49.00;;;;;;5095235;28;20055;-64
2022/04/20 10:06:27;;;;;;;2.92;2.15;;;20.50;48.30;;;;;;5094270;28;20024;-65
2022/04/20 10:08:53;;;;;;;2.45;1.85;;;20.20;48.50;;;;;;5093938;28;20419;-64
2022/04/20 10:11:22;;;;;;;2.15;1.85;;;21.60;47.70;;;;;;5094388;28;20028;-67
2022/04/20 10:16:05;;;;;;;3.00;2.45;;;21.20;46.90;;;;;;5093668;28;20024;-66
2022/04/20 10:16:37;;;;;;;2.70;1.88;;;21.40;47.00;;;;;;5093305;28;20453;-68
2022/04/20 10:19:03;;;;;;;3.00;2.00;;;20.70;47.20;;;;;;5076966;28;20472;-65
2022/04/20 10:21:31;;;;;;;6.68;2.60;;;20.30;47.40;;;;;;5099540;28;20032;-68
2022/04/20 10:24:05;;;;;;;4.35;2.38;;;20.90;47.40;;;;;;5118648;28;20051;-68
2022/04/20 10:26:33;;;;;;;3.58;2.08;;;19.90;47.50;;;;;;5122661;28;20024;-68
2022/04/20 10:29:15;;;;;;;3.63;2.22;;;20.60;47.40;;;;;;5117222;28;20488;-67
2022/04/20 10:32:00;;;;;;;4.72;1.90;;;20.80;45.90;;;;;;5116034;28;20541;-67
2022/04/20 10:34:26;;;;;;;2.22;1.80;;;20.20;45.50;;;;;;5116189;28;20019;-67
2022/04/20 10:37:03;;;;;;;5.68;2.63;;;20.00;46.20;;;;;;5115911;28;20516;-66
2022/04/20 10:39:37;;;;;;;3.47;2.58;;;19.60;46.60;;;;;;5116152;28;20031;-66
2022/04/20 10:42:23;;;;;;;2.47;2.03;;;20.20;46.70;;;;;;5116608;28;20077;-64
2022/04/20 10:45:06;;;;;;;4.13;2.10;;;19.00;47.50;;;;;;5116305;28;20023;-67
2022/04/20 10:47:35;;;;;;;3.67;1.88;;;20.50;46.90;;;;;;5115827;28;20023;-67
2022/04/20 10:50:16;;;;;;;3.17;2.00;;;21.40;45.10;;;;;;5114991;28;20035;-68
2022/04/20 10:53:03;;;;;;;3.75;2.10;;;20.50;45.30;;;;;;5115818;28;20024;-68
2022/04/20 10:55:31;;;;;;;3.78;2.13;;;21.00;45.90;;;;;;5115834;28;20019;-67
2022/04/20 10:58:02;;;;;;;3.90;2.00;;;20.10;45.60;;;;;;5115767;28;20020;-68
2022/04/20 11:00:33;;;;;;;7.07;2.22;;;20.40;45.90;;;;;;5116053;28;20103;-67
2022/04/20 11:03:03;;;;;;;3.00;2.10;;;21.20;44.90;;;;;;5115842;28;20112;-66
2022/04/20 11:05:28;;;;;;;5.60;1.98;;;20.40;45.60;;;;;;5116130;28;20015;-67
2022/04/20 11:08:12;;;;;;;4.30;2.35;;;20.40;45.60;;;;;;5114494;28;20026;-68
2022/04/20 11:10:42;;;;;;;4.10;2.38;;;19.10;46.60;;;;;;5117049;28;20479;-67
2022/04/20 11:19:08;;;;;;;3.97;2.42;;;16.10;51.00;;;;;;5128684;28;20027;-67
2022/04/20 11:21:34;;;;;;;5.20;2.20;;;15.70;50.80;;;;;;5122973;28;20027;-66
2022/04/20 11:24:11;;;;;;;4.85;2.47;;;15.60;51.30;;;;;;5117095;28;20031;-67
2022/04/20 11:26:41;;;;;;;4.13;2.90;;;15.80;51.40;;;;;;5114985;28;20043;-68
2022/04/20 11:29:15;;;;;;;3.63;2.50;;;15.70;51.40;;;;;;5114911;28;20383;-67
2022/04/20 11:32:02;;;;;;;4.20;2.60;;;15.50;51.80;;;;;;5114661;28;20030;-66
2022/04/20 11:34:32;;;;;;;3.78;2.85;;;15.60;52.10;;;;;;5115392;28;20034;-68
2022/04/20 11:37:03;;;;;;;4.40;2.88;;;15.50;51.90;;;;;;5115176;28;20375;-67
2022/04/20 11:39:30;;;;;;;4.70;2.60;;;15.20;52.30;;;;;;5115341;28;20402;-66
2022/04/20 11:41:56;;;;;;;;;;;15.20;51.90;;;;;;5114335;28;20476;-68
2022/04/20 11:44:29;;;;;;;2.75;2.47;;;15.30;52.40;;;;;;5114842;28;19955;-66
2022/04/20 11:47:03;;;;;;;8.40;3.10;;;15.10;52.20;;;;;;5114811;28;20024;-66
2022/04/20 11:49:41;;;;;;;3.88;3.00;;;15.10;52.60;;;;;;5114274;28;20035;-66
2022/04/20 11:52:13;;;;;;;5.05;2.88;;;15.00;52.80;;;;;;5114090;28;20031;-66
2022/04/20 11:54:40;;;;;;;3.70;2.63;;;15.20;53.10;;;;;;5113182;28;20102;-67
2022/04/20 11:57:07;;;;;;;2.90;2.15;;;15.20;52.60;;;;;;5113780;28;20031;-67
2022/04/20 11:59:33;;;;;;;3.38;2.50;;;15.20;52.60;;;;;;5114700;28;20472;-66
2022/04/20 12:01:59;;;;;;;4.88;2.53;;;15.20;52.60;;;;;;5114894;28;20027;-68
2022/04/20 12:04:27;;;;;;;4.47;2.60;;;15.20;52.70;;;;;;5114818;28;20369;-65
2022/04/20 12:06:56;;;;;;;3.90;2.67;;;15.30;52.10;;;;;;5115064;28;20214;-66
2022/04/20 12:09:26;;;;;;;3.72;2.22;;;15.20;51.90;;;;;;5116734;28;20055;-66
2022/04/20 12:11:56;;;;;;;5.53;3.05;;;15.40;52.60;;;;;;5115398;28;20028;-65
2022/04/20 12:14:24;;;;;;;3.80;2.88;;;15.40;52.00;;;;;;5114443;28;20471;-67
2022/04/20 12:16:55;;;;;;;4.05;2.80;;;15.20;52.20;;;;;;5120449;28;20055;-67
2022/04/20 12:19:22;;;;;;;3.15;2.55;;;15.10;52.10;;;;;;5116307;28;20102;-66
2022/04/20 12:21:48;;;;;;;3.40;2.63;;;15.10;52.60;;;;;;5120879;28;20024;-66
2022/04/20 12:24:29;;;;;;;5.07;2.42;;;15.10;52.10;;;;;;5115751;28;20572;-66
2022/04/20 12:26:56;;;;;;;3.88;2.60;;;15.00;51.90;;;;;;5115019;28;20023;-66
2022/04/20 12:29:23;;;;;;;3.35;2.80;;;15.00;52.40;;;;;;5115002;28;20023;-67
2022/04/20 12:31:50;;;;;;;6.68;2.75;;;15.00;52.40;;;;;;5115925;28;20393;-67
2022/04/20 12:34:18;;;;;;;3.72;2.83;;;15.10;52.30;;;;;;5114065;28;20035;-68
2022/04/20 12:36:59;;;;;;;4.70;2.53;;;15.10;53.10;;;;;;5114177;28;20114;-66
2022/04/20 12:39:30;;;;;;;4.00;2.90;;;15.10;52.80;;;;;;5114255;28;20060;-66
2022/04/20 12:41:58;;;;;;;4.22;2.40;;;15.30;52.10;;;;;;5114806;28;20024;-66
2022/04/20 12:44:35;;;;;;;3.83;2.50;;;15.30;52.40;;;;;;5115324;28;20026;-70
2022/04/20 12:47:15;;;;;;;4.03;2.63;;;15.30;52.00;;;;;;5114921;28;20047;-66
2022/04/20 12:49:51;;;;;;;3.20;2.50;;;15.40;52.00;;;;;;5112827;28;20027;-68
2022/04/20 12:52:19;;;;;;;3.45;2.40;;;15.30;51.90;;;;;;5112805;28;20058;-67
2022/04/20 12:55:05;;;;;;;3.53;2.55;;;15.40;51.20;;;;;;5114139;28;20031;-68
2022/04/20 13:03:16;;;;;;;4.32;2.72;;;15.30;51.00;;;;;;5114499;28;20073;-66
2022/04/20 13:05:43;;;;;;;6.88;2.00;;;15.20;51.30;;;;;;5113515;28;20020;-66
2022/04/20 13:08:10;;;;;;;3.17;2.55;;;15.40;50.60;;;;;;5113917;28;20024;-67
2022/04/20 13:10:40;;;;;;;5.43;2.78;;;15.30;49.60;;;;;;5112199;28;20089;-65
2022/04/20 13:13:07;;;;;;;3.58;2.22;;;15.40;50.40;;;;;;5116552;28;20046;-67
2022/04/20 13:15:34;;;;;;;4.93;2.80;;;15.60;50.20;;;;;;5118100;28;20016;-66
2022/04/20 13:17:59;;;;;;;4.47;2.40;;;15.70;50.00;;;;;;5116272;28;20024;-67
2022/04/20 13:20:28;;;;;;;3.10;2.25;;;15.80;50.00;;;;;;5116052;28;20024;-66
2022/04/20 13:22:54;;;;;;;5.40;2.70;;;15.80;49.90;;;;;;5117788;28;20313;-67
2022/04/20 13:28:04;;;;;;;5.20;2.72;;;15.70;50.70;;;;;;5117676;28;20035;-66
2022/04/20 13:30:35;;;;;;;3.75;2.28;;;15.70;50.60;;;;;;5118948;28;20031;-66